Time;durP1;ratioP1;P1;durP2;ratioP2;P2;SDS_P1;SDS_P2;PMS_P1;PMS_P2;Temp;Humidity;BMP_temperature;BMP_pressure;BME280_temperature;BME280_humidity;BME280_pressure;Samples;Min_cycle;Max_cycle;Signal;HPM_P1;HPM_P2
2021/12/26 00:00:55;;;;;;;3.83;2.35;;;23.30;33.60;;;;;;5006930;28;20042;-45
2021/12/26 00:03:26;;;;;;;4.18;2.40;;;23.30;33.50;;;;;;5006235;28;20029;-44
2021/12/26 00:05:53;;;;;;;4.95;2.42;;;23.30;33.50;;;;;;5006897;28;20124;-44
2021/12/26 00:08:19;;;;;;;4.13;2.50;;;23.30;33.50;;;;;;5005477;28;20021;-44
2021/12/26 00:10:48;;;;;;;4.40;2.13;;;23.30;33.50;;;;;;5006570;28;20596;-44
2021/12/26 00:13:18;;;;;;;3.88;2.25;;;23.20;34.00;;;;;;5006621;28;20107;-44
2021/12/26 00:15:44;;;;;;;4.65;2.55;;;23.20;33.40;;;;;;5009888;28;20056;-45
2021/12/26 00:18:10;;;;;;;4.50;2.50;;;23.20;33.40;;;;;;5007005;28;20076;-45
2021/12/26 00:20:40;;;;;;;3.75;2.22;;;23.20;33.40;;;;;;5005223;28;20121;-44
2021/12/26 00:23:07;;;;;;;3.88;2.20;;;23.20;33.40;;;;;;5005881;28;20073;-44
2021/12/26 00:25:33;;;;;;;3.70;2.22;;;23.20;33.40;;;;;;5011330;28;20521;-45
2021/12/26 00:28:00;;;;;;;4.22;2.40;;;23.10;33.40;;;;;;5018228;28;20017;-44
2021/12/26 00:30:26;;;;;;;13.80;3.83;;;23.20;33.40;;;;;;5017544;28;20037;-44
2021/12/26 00:32:52;;;;;;;15.80;6.03;;;23.10;33.50;;;;;;5020649;28;20033;-44
2021/12/26 00:35:20;;;;;;;20.52;7.40;;;23.10;33.70;;;;;;5021963;28;20029;-44
2021/12/26 00:37:47;;;;;;;17.67;7.13;;;23.10;33.60;;;;;;5019503;28;20063;-44
2021/12/26 00:40:16;;;;;;;13.90;5.55;;;23.10;33.70;;;;;;5020900;28;20018;-44
2021/12/26 00:42:42;;;;;;;17.17;5.90;;;23.10;33.70;;;;;;5021106;28;20009;-44
2021/12/26 00:45:10;;;;;;;13.25;5.50;;;23.10;33.70;;;;;;5021798;28;20018;-44
2021/12/26 00:47:36;;;;;;;11.95;5.00;;;23.10;33.70;;;;;;5023450;28;20036;-44
2021/12/26 00:50:04;;;;;;;9.38;4.35;;;23.10;33.80;;;;;;5023682;28;20072;-44
2021/12/26 00:52:30;;;;;;;9.52;3.97;;;23.10;33.80;;;;;;5022819;28;20080;-45
2021/12/26 00:54:56;;;;;;;10.38;4.00;;;23.10;33.80;;;;;;5023210;28;20041;-44
2021/12/26 00:57:21;;;;;;;6.68;3.47;;;23.10;33.80;;;;;;5024501;28;20026;-44
2021/12/26 00:59:47;;;;;;;9.70;4.50;;;23.00;33.60;;;;;;5024125;28;20076;-44
2021/12/26 01:02:14;;;;;;;9.45;4.07;;;23.00;33.50;;;;;;5017615;28;20073;-44
2021/12/26 01:04:39;;;;;;;6.97;3.63;;;23.00;34.80;;;;;;5022930;28;20025;-44
2021/12/26 01:07:18;;;;;;;9.40;3.85;;;23.00;35.20;;;;;;5019849;28;20142;-44
2021/12/26 01:09:47;;;;;;;9.15;4.15;;;23.00;34.90;;;;;;5024626;28;20025;-44
2021/12/26 01:12:15;;;;;;;7.07;3.78;;;23.00;34.90;;;;;;5023747;28;20037;-45
2021/12/26 01:14:48;;;;;;;6.30;3.70;;;23.00;34.80;;;;;;5008812;28;20045;-44
2021/12/26 01:17:18;;;;;;;7.85;3.92;;;23.00;34.90;;;;;;5011965;28;20636;-44
2021/12/26 01:19:48;;;;;;;6.65;3.45;;;23.00;34.90;;;;;;5014712;28;20144;-44
2021/12/26 01:22:15;;;;;;;5.80;3.70;;;23.10;35.00;;;;;;5015484;28;20037;-46
2021/12/26 01:24:42;;;;;;;7.93;4.20;;;23.00;34.90;;;;;;5020893;28;20685;-44
2021/12/26 01:27:08;;;;;;;6.75;3.92;;;23.00;34.90;;;;;;5024521;28;20030;-45
2021/12/26 01:29:35;;;;;;;6.82;3.80;;;23.00;34.90;;;;;;5023590;28;20026;-44
2021/12/26 01:32:03;;;;;;;7.95;3.75;;;23.00;34.80;;;;;;5023650;28;20554;-44
2021/12/26 01:34:28;;;;;;;7.88;3.80;;;23.00;34.90;;;;;;5023698;28;20413;-45
2021/12/26 01:36:54;;;;;;;6.50;4.03;;;23.10;35.00;;;;;;5020786;28;20022;-44
2021/12/26 01:39:20;;;;;;;6.50;3.67;;;23.00;34.90;;;;;;5003750;28;20183;-44
2021/12/26 01:41:47;;;;;;;7.55;3.80;;;23.00;35.00;;;;;;5003983;28;20104;-46
2021/12/26 01:44:14;;;;;;;6.75;3.97;;;23.00;35.20;;;;;;5003608;28;20184;-45
2021/12/26 01:46:40;;;;;;;6.00;3.75;;;23.00;35.30;;;;;;5004070;28;20132;-44
2021/12/26 01:49:08;;;;;;;8.20;4.07;;;23.00;35.50;;;;;;5004680;28;20018;-44
2021/12/26 01:51:34;;;;;;;5.75;3.22;;;23.00;35.30;;;;;;5031973;28;20505;-44
2021/12/26 01:54:06;;;;;;;6.45;3.40;;;23.00;35.10;;;;;;5007198;28;20030;-44
2021/12/26 01:56:32;;;;;;;6.70;3.40;;;23.00;35.70;;;;;;5019355;28;20040;-44
2021/12/26 01:58:59;;;;;;;7.10;3.40;;;23.00;35.00;;;;;;5015912;28;20088;-44
2021/12/26 02:01:25;;;;;;;5.72;3.40;;;23.00;35.00;;;;;;5012546;28;20049;-44
2021/12/26 02:03:50;;;;;;;5.68;3.13;;;23.00;35.00;;;;;;5023342;28;20034;-45
2021/12/26 02:06:18;;;;;;;6.50;3.40;;;23.00;35.20;;;;;;5024664;28;20067;-44
2021/12/26 02:08:44;;;;;;;6.05;3.30;;;23.00;34.90;;;;;;5006911;28;20591;-46
2021/12/26 02:11:09;;;;;;;4.75;2.80;;;23.00;34.90;;;;;;5004669;28;20105;-45
2021/12/26 02:13:39;;;;;;;6.15;3.22;;;23.00;34.80;;;;;;5003993;28;20069;-44
2021/12/26 02:16:06;;;;;;;5.97;3.20;;;23.00;34.80;;;;;;5004508;28;20113;-44
2021/12/26 02:18:32;;;;;;;4.72;2.60;;;23.00;34.80;;;;;;5006405;28;20018;-44
2021/12/26 02:28:46;;;;;;;5.75;3.17;;;22.90;34.70;;;;;;5003269;28;20057;-44
2021/12/26 02:31:13;;;;;;;5.97;3.25;;;22.90;34.70;;;;;;5009731;28;20086;-44
2021/12/26 02:33:39;;;;;;;5.38;2.90;;;22.90;34.70;;;;;;5018736;28;20034;-44
2021/12/26 02:36:06;;;;;;;5.68;3.20;;;22.90;34.70;;;;;;5020690;28;20018;-44
2021/12/26 02:38:33;;;;;;;4.60;2.78;;;22.90;34.70;;;;;;5014598;28;20033;-44
2021/12/26 02:40:59;;;;;;;4.82;2.65;;;22.90;34.70;;;;;;5023716;28;20068;-44
2021/12/26 02:43:28;;;;;;;6.22;3.00;;;22.90;34.70;;;;;;5015521;28;20036;-44
2021/12/26 02:45:54;;;;;;;5.63;2.97;;;22.80;34.60;;;;;;5023919;28;20044;-45
2021/12/26 02:48:20;;;;;;;4.80;3.03;;;22.80;34.60;;;;;;5023575;28;20033;-45
2021/12/26 02:50:50;;;;;;;4.78;3.05;;;22.80;34.50;;;;;;5036076;28;20497;-44
2021/12/26 02:53:20;;;;;;;4.43;2.70;;;22.80;34.60;;;;;;5020257;28;20691;-45
2021/12/26 02:55:51;;;;;;;4.47;2.67;;;22.80;34.60;;;;;;5002937;28;20049;-44
2021/12/26 02:58:17;;;;;;;5.43;3.00;;;22.80;34.50;;;;;;5003586;28;20667;-44
2021/12/26 03:01:00;;;;;;;4.80;2.97;;;22.80;34.70;;;;;;5003131;28;20026;-45
2021/12/26 03:03:26;;;;;;;6.07;3.05;;;22.80;34.60;;;;;;5003819;28;20025;-44
2021/12/26 03:06:05;;;;;;;4.68;2.58;;;22.80;34.70;;;;;;5007068;28;20033;-44
2021/12/26 03:08:31;;;;;;;4.60;3.03;;;22.80;35.40;;;;;;5007393;28;20117;-45
2021/12/26 03:10:57;;;;;;;6.18;3.25;;;22.80;34.80;;;;;;5007636;28;20029;-44
2021/12/26 03:13:23;;;;;;;5.85;3.28;;;22.80;34.80;;;;;;5005876;28;20088;-44
2021/12/26 03:15:49;;;;;;;5.20;3.10;;;22.80;34.90;;;;;;5007235;28;20109;-44
2021/12/26 03:18:16;;;;;;;5.28;3.00;;;22.80;34.90;;;;;;5010222;28;20100;-46
2021/12/26 03:20:45;;;;;;;5.53;3.33;;;22.70;34.80;;;;;;5007408;28;20030;-44
2021/12/26 03:23:14;;;;;;;4.95;3.08;;;22.70;34.90;;;;;;5006142;28;20127;-44
2021/12/26 03:25:40;;;;;;;5.53;2.92;;;22.70;34.90;;;;;;5006495;28;20510;-44
2021/12/26 03:28:07;;;;;;;4.82;2.97;;;22.70;34.90;;;;;;5006134;28;20084;-45
2021/12/26 03:30:34;;;;;;;4.70;2.67;;;22.70;34.90;;;;;;5006814;28;20034;-44
2021/12/26 03:33:03;;;;;;;4.28;2.53;;;22.70;34.90;;;;;;5005601;28;20037;-45
2021/12/26 03:35:30;;;;;;;4.25;2.65;;;22.70;34.80;;;;;;5005940;28;20504;-45
2021/12/26 03:37:57;;;;;;;4.15;2.50;;;22.70;34.80;;;;;;5006140;28;20030;-44
2021/12/26 03:40:23;;;;;;;5.70;3.15;;;22.70;34.70;;;;;;5006370;28;20029;-44
2021/12/26 03:42:51;;;;;;;4.82;2.85;;;22.70;34.60;;;;;;5006189;28;20018;-44
2021/12/26 03:45:18;;;;;;;4.22;2.63;;;22.70;34.60;;;;;;5005388;28;20806;-44
2021/12/26 03:47:48;;;;;;;4.38;2.55;;;22.60;34.50;;;;;;5005772;28;20034;-45
2021/12/26 03:50:15;;;;;;;4.13;2.55;;;22.60;35.20;;;;;;5020615;28;20378;-44
2021/12/26 03:52:41;;;;;;;4.07;2.70;;;22.60;34.50;;;;;;5035150;28;20037;-44
2021/12/26 03:55:07;;;;;;;5.43;2.88;;;22.60;34.50;;;;;;5006256;28;20018;-45
2021/12/26 03:57:33;;;;;;;4.32;2.45;;;22.60;34.50;;;;;;4988815;28;20057;-44
2021/12/26 03:59:59;;;;;;;4.63;2.75;;;22.60;34.50;;;;;;5006525;28;20061;-44
2021/12/26 04:02:24;;;;;;;5.18;2.80;;;22.60;34.50;;;;;;5005699;28;20652;-44
2021/12/26 04:04:51;;;;;;;4.40;2.40;;;22.60;34.50;;;;;;5005164;28;20584;-45
2021/12/26 04:07:16;;;;;;;4.80;2.90;;;22.60;34.50;;;;;;5006001;28;20029;-44
2021/12/26 04:09:42;;;;;;;4.85;2.90;;;22.60;34.50;;;;;;5006081;28;20527;-44
2021/12/26 04:12:09;;;;;;;4.15;2.55;;;22.50;34.50;;;;;;5005767;28;20109;-44
2021/12/26 04:14:35;;;;;;;4.63;2.78;;;22.60;34.50;;;;;;5005510;28;20026;-45
2021/12/26 04:17:00;;;;;;;4.60;2.60;;;22.50;34.50;;;;;;5006024;28;20028;-44
2021/12/26 04:19:27;;;;;;;4.20;2.20;;;22.50;34.40;;;;;;5009124;28;20026;-44
2021/12/26 04:21:52;;;;;;;4.63;2.75;;;22.50;34.40;;;;;;5006192;28;20092;-44
2021/12/26 04:24:18;;;;;;;4.53;2.58;;;22.50;34.40;;;;;;5005433;28;20037;-45
2021/12/26 04:26:44;;;;;;;4.47;2.53;;;22.50;34.40;;;;;;5006121;28;20533;-45
2021/12/26 04:29:10;;;;;;;5.50;2.70;;;22.50;34.40;;;;;;5005754;28;20109;-45
2021/12/26 04:31:37;;;;;;;4.88;2.80;;;22.50;34.40;;;;;;5006173;28;20631;-45
2021/12/26 04:34:03;;;;;;;4.57;2.47;;;22.50;34.50;;;;;;5005745;28;20037;-44
2021/12/26 04:36:29;;;;;;;5.45;2.83;;;22.50;34.40;;;;;;5005897;28;20105;-44
2021/12/26 04:38:54;;;;;;;4.80;2.20;;;22.50;34.40;;;;;;5005377;28;20105;-44
2021/12/26 04:41:20;;;;;;;4.15;2.47;;;22.50;34.40;;;;;;5004931;28;20639;-45
2021/12/26 04:43:46;;;;;;;3.97;2.42;;;22.50;35.00;;;;;;5005235;28;20049;-44
2021/12/26 04:46:12;;;;;;;4.10;2.35;;;22.50;34.40;;;;;;5005139;28;20037;-44
2021/12/26 04:48:41;;;;;;;5.25;3.00;;;22.40;34.30;;;;;;5004779;28;20061;-44
2021/12/26 04:51:09;;;;;;;4.13;2.58;;;22.40;34.30;;;;;;5034245;28;20051;-44
2021/12/26 04:53:36;;;;;;;4.18;2.65;;;22.40;34.30;;;;;;5020987;28;20774;-45
2021/12/26 04:56:02;;;;;;;4.45;2.30;;;22.40;34.30;;;;;;5004686;28;20080;-44
2021/12/26 04:58:28;;;;;;;4.50;2.72;;;22.40;34.30;;;;;;5003845;28;20041;-44
2021/12/26 05:00:53;;;;;;;4.15;2.28;;;22.40;34.30;;;;;;5011304;28;20037;-45
2021/12/26 05:03:19;;;;;;;5.40;2.88;;;22.30;34.30;;;;;;5024245;28;20091;-44
2021/12/26 05:05:46;;;;;;;4.20;2.45;;;22.40;34.30;;;;;;5015477;28;20030;-45
2021/12/26 05:08:12;;;;;;;4.40;2.72;;;22.40;34.40;;;;;;5005094;28;20564;-44
2021/12/26 05:10:39;;;;;;;4.85;2.92;;;22.30;34.50;;;;;;5005120;28;20030;-44
2021/12/26 05:13:05;;;;;;;4.78;2.72;;;22.30;34.40;;;;;;5005345;28;20048;-45
2021/12/26 05:15:31;;;;;;;4.97;2.85;;;22.30;34.50;;;;;;5004903;28;20037;-45
2021/12/26 05:17:58;;;;;;;4.90;2.70;;;22.30;34.40;;;;;;5005061;28;20026;-45
2021/12/26 05:20:26;;;;;;;4.30;2.45;;;22.30;34.40;;;;;;5006457;28;20621;-44
2021/12/26 05:22:54;;;;;;;4.70;2.70;;;22.30;34.40;;;;;;5002565;28;20026;-44
2021/12/26 05:25:21;;;;;;;5.13;3.00;;;22.30;34.40;;;;;;5004075;28;20029;-44
2021/12/26 05:27:47;;;;;;;4.53;2.83;;;22.30;34.30;;;;;;5003617;28;20041;-44
2021/12/26 05:30:16;;;;;;;4.70;2.72;;;22.30;34.30;;;;;;5003483;28;20033;-44
2021/12/26 05:32:42;;;;;;;6.03;3.05;;;22.30;34.30;;;;;;5003960;28;20033;-45
2021/12/26 05:35:10;;;;;;;5.22;2.80;;;22.30;34.30;;;;;;5002888;28;20079;-44
2021/12/26 05:37:36;;;;;;;4.57;2.67;;;22.30;34.40;;;;;;5003821;28;20033;-44
2021/12/26 05:40:03;;;;;;;4.63;2.97;;;22.30;34.30;;;;;;5004748;28;20038;-44
2021/12/26 05:42:32;;;;;;;4.63;2.70;;;22.30;34.30;;;;;;5004393;28;20487;-44
2021/12/26 05:44:58;;;;;;;4.68;2.80;;;22.30;34.30;;;;;;5004760;28;20087;-44
2021/12/26 05:47:24;;;;;;;4.10;2.60;;;22.20;34.20;;;;;;5004444;28;20160;-45
2021/12/26 05:49:50;;;;;;;4.57;2.70;;;22.20;34.20;;;;;;5012908;28;20112;-45
2021/12/26 05:52:18;;;;;;;5.10;2.92;;;22.20;34.20;;;;;;5043997;28;20562;-44
2021/12/26 05:54:44;;;;;;;4.68;2.88;;;22.20;34.30;;;;;;5004296;28;20038;-45
2021/12/26 05:57:10;;;;;;;4.93;2.75;;;22.20;34.20;;;;;;5003146;28;20037;-44
2021/12/26 05:59:36;;;;;;;5.30;2.97;;;22.20;34.20;;;;;;5004611;28;20667;-44
2021/12/26 06:02:02;;;;;;;4.47;2.80;;;22.20;34.20;;;;;;5003052;28;20042;-44
2021/12/26 06:04:27;;;;;;;3.92;2.25;;;22.20;34.30;;;;;;5004207;28;20029;-44
2021/12/26 06:06:53;;;;;;;5.47;2.70;;;22.20;34.20;;;;;;5003695;28;20034;-44
2021/12/26 06:09:19;;;;;;;4.40;2.70;;;22.10;34.30;;;;;;5004299;28;20139;-44
2021/12/26 06:11:45;;;;;;;4.00;2.60;;;22.20;34.40;;;;;;5004591;28;20069;-44
2021/12/26 06:14:11;;;;;;;4.57;2.70;;;22.20;34.40;;;;;;5003018;28;20038;-44
2021/12/26 06:16:36;;;;;;;3.97;2.40;;;22.20;34.50;;;;;;5003918;28;20049;-44
2021/12/26 06:19:02;;;;;;;5.13;2.85;;;22.20;34.50;;;;;;5003337;28;20037;-45
2021/12/26 06:21:28;;;;;;;4.45;2.60;;;22.20;34.50;;;;;;5006093;28;20566;-45
2021/12/26 06:23:54;;;;;;;5.00;2.83;;;22.10;34.60;;;;;;5003132;28;20507;-44
2021/12/26 06:26:22;;;;;;;3.97;2.42;;;22.20;34.60;;;;;;5003001;28;20049;-44
2021/12/26 06:28:48;;;;;;;5.40;3.05;;;22.10;34.60;;;;;;5002898;28;20034;-44
2021/12/26 06:31:14;;;;;;;4.65;2.72;;;22.20;34.70;;;;;;5003609;28;20565;-44
2021/12/26 06:33:40;;;;;;;4.45;2.60;;;22.20;34.70;;;;;;5003210;28;20676;-44
2021/12/26 06:36:07;;;;;;;4.38;2.90;;;22.20;34.70;;;;;;5004351;28;20547;-46
2021/12/26 06:38:34;;;;;;;4.70;3.00;;;22.30;34.80;;;;;;5004646;28;20109;-45
2021/12/26 06:41:01;;;;;;;4.50;2.80;;;22.30;34.80;;;;;;5008101;28;20113;-45
2021/12/26 06:43:27;;;;;;;4.50;2.85;;;22.30;34.70;;;;;;5007237;28;20064;-44
2021/12/26 06:45:53;;;;;;;4.18;2.65;;;22.40;34.70;;;;;;5006510;28;20478;-44
2021/12/26 06:48:20;;;;;;;4.75;2.70;;;22.50;34.70;;;;;;5007597;28;20102;-45
2021/12/26 06:50:47;;;;;;;4.22;2.38;;;22.50;34.70;;;;;;5031276;28;20508;-44
2021/12/26 06:53:13;;;;;;;5.80;3.20;;;22.60;34.60;;;;;;5032823;28;20060;-44
2021/12/26 06:55:39;;;;;;;4.90;2.95;;;22.60;34.50;;;;;;5006528;28;20129;-44
2021/12/26 06:58:06;;;;;;;4.38;2.65;;;22.70;34.50;;;;;;5006818;28;20367;-45
2021/12/26 07:00:33;;;;;;;5.22;3.13;;;22.80;34.50;;;;;;5006975;28;20057;-44
2021/12/26 07:02:58;;;;;;;4.50;2.55;;;22.80;34.40;;;;;;5006861;28;20628;-45
2021/12/26 07:05:24;;;;;;;5.10;2.58;;;22.90;34.40;;;;;;5006680;28;20103;-44
2021/12/26 07:07:51;;;;;;;5.53;2.85;;;23.00;34.30;;;;;;5005556;28;20045;-45
2021/12/26 07:10:17;;;;;;;4.88;2.70;;;23.10;34.20;;;;;;5006902;28;20022;-45
2021/12/26 07:12:44;;;;;;;5.07;2.78;;;23.10;34.10;;;;;;5006044;28;20037;-45
2021/12/26 07:15:10;;;;;;;5.03;2.40;;;23.10;34.00;;;;;;5007223;28;20087;-44
2021/12/26 07:17:36;;;;;;;4.70;2.85;;;23.20;33.90;;;;;;5006275;28;20056;-45
2021/12/26 07:20:03;;;;;;;4.53;2.70;;;23.30;34.00;;;;;;5006868;28;20030;-45
2021/12/26 07:22:29;;;;;;;5.20;2.60;;;23.30;33.80;;;;;;5009074;28;20030;-45
2021/12/26 07:24:55;;;;;;;4.72;2.60;;;23.30;33.70;;;;;;5007098;28;20038;-45
2021/12/26 07:27:21;;;;;;;3.95;2.58;;;23.30;33.70;;;;;;5006831;28;20180;-45
2021/12/26 07:29:46;;;;;;;4.53;2.38;;;23.40;33.60;;;;;;5006819;28;20041;-44
2021/12/26 07:32:12;;;;;;;4.25;2.58;;;23.40;33.60;;;;;;5006496;28;20030;-45
2021/12/26 07:34:39;;;;;;;4.80;2.85;;;23.40;33.50;;;;;;5006556;28;20081;-44
2021/12/26 07:37:06;;;;;;;4.88;2.80;;;23.40;33.40;;;;;;5005768;28;20648;-45
2021/12/26 07:39:32;;;;;;;4.78;3.25;;;23.50;33.50;;;;;;5005633;28;20026;-45
2021/12/26 07:41:58;;;;;;;4.85;3.00;;;23.50;33.30;;;;;;5005274;28;20494;-45
2021/12/26 07:44:23;;;;;;;5.05;3.10;;;23.50;33.40;;;;;;5004845;28;20033;-45
2021/12/26 07:46:49;;;;;;;5.28;2.88;;;23.60;33.30;;;;;;5006360;28;20037;-45
2021/12/26 07:49:16;;;;;;;6.57;2.88;;;23.60;33.30;;;;;;5024493;28;20112;-44
2021/12/26 07:51:43;;;;;;;5.40;3.55;;;23.70;33.50;;;;;;5024771;28;20030;-44
2021/12/26 07:54:12;;;;;;;4.80;3.00;;;23.70;33.30;;;;;;5024337;28;20032;-44
2021/12/26 07:56:37;;;;;;;5.75;3.03;;;23.80;33.20;;;;;;5025261;28;20091;-45
2021/12/26 07:59:03;;;;;;;4.93;2.90;;;23.80;33.10;;;;;;5008688;28;20478;-45
2021/12/26 08:01:29;;;;;;;4.80;3.17;;;23.90;33.10;;;;;;5014274;28;20040;-45
2021/12/26 08:03:56;;;;;;;4.30;2.60;;;24.00;33.10;;;;;;5006218;28;20064;-45
2021/12/26 08:06:22;;;;;;;5.30;3.08;;;24.00;33.00;;;;;;5009879;28;20502;-44
2021/12/26 08:08:49;;;;;;;4.53;3.00;;;24.10;33.00;;;;;;5005857;28;20053;-45
2021/12/26 08:11:15;;;;;;;5.07;2.92;;;24.20;33.00;;;;;;5006019;28;20022;-44
2021/12/26 08:13:42;;;;;;;4.75;3.05;;;24.20;32.90;;;;;;5005755;28;20033;-44
2021/12/26 08:16:08;;;;;;;4.97;2.97;;;24.20;32.80;;;;;;5005426;28;20080;-44
2021/12/26 08:18:35;;;;;;;5.00;2.90;;;24.30;32.80;;;;;;5004885;28;20065;-44
2021/12/26 08:21:00;;;;;;;4.68;2.80;;;24.30;32.70;;;;;;5005294;28;20124;-45
2021/12/26 08:23:27;;;;;;;4.18;2.38;;;24.30;32.70;;;;;;5004021;28;20455;-44
2021/12/26 08:25:54;;;;;;;4.75;2.88;;;24.40;32.70;;;;;;4987352;28;20030;-45
2021/12/26 08:28:20;;;;;;;4.65;2.78;;;24.50;32.60;;;;;;5004288;28;20037;-45
2021/12/26 08:30:46;;;;;;;4.90;3.20;;;24.50;32.60;;;;;;5005507;28;20030;-44
2021/12/26 08:33:12;;;;;;;5.28;3.10;;;24.50;32.50;;;;;;5004450;28;20029;-44
2021/12/26 08:35:40;;;;;;;4.60;2.83;;;24.60;32.40;;;;;;5007495;28;20496;-44
2021/12/26 08:38:06;;;;;;;5.28;3.20;;;24.60;32.40;;;;;;5010104;28;20730;-44
2021/12/26 08:40:32;;;;;;;4.20;2.67;;;24.70;32.40;;;;;;5022797;28;20099;-44
2021/12/26 08:42:58;;;;;;;5.28;2.88;;;24.70;32.50;;;;;;5020812;28;20095;-44
2021/12/26 08:45:25;;;;;;;7.30;5.13;;;24.70;32.60;;;;;;5021458;28;20029;-44
2021/12/26 08:47:52;;;;;;;17.00;15.32;;;24.80;32.60;;;;;;5022726;28;20039;-49
2021/12/26 08:50:20;;;;;;;51.90;46.42;;;24.80;32.50;;;;;;5030078;28;20452;-44
2021/12/26 08:52:46;;;;;;;67.65;60.47;;;24.90;32.30;;;;;;5040982;28;20112;-45
2021/12/26 08:55:12;;;;;;;55.05;49.55;;;24.90;32.00;;;;;;5008835;28;20423;-45
2021/12/26 08:57:38;;;;;;;45.78;41.17;;;24.90;32.10;;;;;;5017061;28;20025;-45
2021/12/26 09:00:09;;;;;;;36.63;32.75;;;25.00;31.90;;;;;;5016122;28;20029;-45
2021/12/26 09:02:34;;;;;;;33.30;29.92;;;25.00;31.90;;;;;;5022589;28;20037;-44
2021/12/26 09:05:00;;;;;;;26.98;24.15;;;25.00;31.70;;;;;;5013389;28;20049;-45
2021/12/26 09:07:28;;;;;;;24.15;21.70;;;25.00;31.50;;;;;;5012075;28;20124;-45
2021/12/26 09:09:57;;;;;;;17.42;15.55;;;25.00;31.30;;;;;;5013257;28;20088;-45
2021/12/26 09:12:24;;;;;;;18.17;16.30;;;25.00;31.30;;;;;;5012575;28;20053;-45
2021/12/26 09:14:50;;;;;;;18.00;14.43;;;25.10;31.30;;;;;;5018665;28;20032;-45
2021/12/26 09:17:16;;;;;;;12.98;10.57;;;25.10;31.20;;;;;;5020897;28;20048;-45
2021/12/26 09:19:42;;;;;;;13.50;10.57;;;25.10;31.30;;;;;;5013719;28;20025;-44
2021/12/26 09:22:10;;;;;;;11.05;9.32;;;25.10;31.50;;;;;;5021869;28;20667;-45
2021/12/26 09:24:38;;;;;;;12.60;9.77;;;25.10;31.70;;;;;;5008477;28;20384;-45
2021/12/26 09:27:04;;;;;;;10.75;8.50;;;25.20;31.80;;;;;;5002638;28;20040;-47
2021/12/26 09:29:30;;;;;;;10.82;8.73;;;25.20;31.70;;;;;;5002158;28;20048;-45
2021/12/26 09:31:56;;;;;;;10.15;7.72;;;25.20;31.70;;;;;;5019270;28;20026;-47
2021/12/26 09:34:23;;;;;;;9.07;6.78;;;25.20;31.60;;;;;;5002668;28;20394;-46
2021/12/26 09:36:49;;;;;;;8.77;6.47;;;25.20;31.60;;;;;;5004100;28;20030;-47
2021/12/26 09:39:15;;;;;;;8.85;6.57;;;25.20;31.60;;;;;;5003460;28;20040;-47
2021/12/26 09:41:41;;;;;;;8.75;6.45;;;25.20;31.50;;;;;;5003855;28;20376;-45
2021/12/26 09:44:08;;;;;;;7.90;5.65;;;25.20;31.60;;;;;;5003624;28;20034;-44
2021/12/26 09:46:35;;;;;;;7.60;5.43;;;25.30;31.60;;;;;;5012079;28;20551;-45
2021/12/26 09:49:00;;;;;;;7.47;4.82;;;25.30;31.50;;;;;;5023494;28;20029;-44
2021/12/26 09:51:27;;;;;;;6.65;4.57;;;25.30;31.70;;;;;;5040780;28;20032;-45
2021/12/26 09:53:53;;;;;;;5.70;3.85;;;25.30;31.60;;;;;;5024608;28;20037;-50
2021/12/26 09:56:19;;;;;;;6.43;4.55;;;25.30;31.60;;;;;;5020178;28;20394;-48
2021/12/26 09:59:18;;;;;;;5.25;3.95;;;25.30;31.60;;;;;;5015173;28;20327;-47
2021/12/26 10:01:49;;;;;;;6.32;4.35;;;25.30;31.60;;;;;;5019652;28;20031;-49
2021/12/26 10:04:31;;;;;;;5.65;4.10;;;25.30;31.60;;;;;;5016340;28;20029;-46
2021/12/26 10:07:04;;;;;;;6.65;4.60;;;25.30;31.60;;;;;;5020949;28;20057;-46
2021/12/26 10:09:32;;;;;;;6.95;4.53;;;25.30;31.70;;;;;;5010603;28;20026;-47
2021/12/26 10:12:00;;;;;;;5.40;3.65;;;25.20;31.70;;;;;;5013027;28;20026;-45
2021/12/26 10:14:29;;;;;;;8.65;5.00;;;25.20;31.90;;;;;;5019171;28;20083;-45
2021/12/26 10:16:57;;;;;;;6.82;4.68;;;25.20;31.80;;;;;;5025900;28;20120;-45
2021/12/26 10:19:23;;;;;;;6.32;4.30;;;25.20;31.90;;;;;;5019736;28;20042;-45
2021/12/26 10:22:00;;;;;;;6.30;4.53;;;25.20;32.50;;;;;;5020704;28;20026;-45
2021/12/26 10:24:39;;;;;;;6.13;4.20;;;25.20;32.00;;;;;;5019105;28;20034;-45
2021/12/26 10:27:06;;;;;;;8.18;4.78;;;25.20;32.00;;;;;;5019630;28;20098;-45
2021/12/26 10:29:49;;;;;;;8.13;4.88;;;25.10;31.90;;;;;;5020214;28;20029;-44
2021/12/26 10:32:19;;;;;;;6.55;4.68;;;25.10;31.90;;;;;;5014244;28;20045;-48
2021/12/26 10:34:53;;;;;;;7.50;5.38;;;25.10;31.90;;;;;;5022371;28;20033;-44
2021/12/26 10:37:41;;;;;;;6.03;4.40;;;25.10;32.00;;;;;;5022047;28;20120;-45
2021/12/26 10:40:11;;;;;;;7.72;4.88;;;25.10;32.10;;;;;;5020288;28;20026;-44
2021/12/26 10:42:40;;;;;;;7.38;5.53;;;25.10;32.10;;;;;;5023105;28;20394;-44
2021/12/26 10:45:11;;;;;;;8.73;5.20;;;25.10;32.00;;;;;;5017206;28;20058;-48
2021/12/26 10:47:39;;;;;;;7.25;4.55;;;25.10;32.00;;;;;;5021978;28;20088;-45
2021/12/26 10:50:08;;;;;;;6.43;4.90;;;25.10;32.00;;;;;;5017099;28;20026;-44
2021/12/26 10:52:35;;;;;;;8.00;5.40;;;25.10;31.90;;;;;;5010722;28;20037;-44
2021/12/26 10:55:03;;;;;;;7.82;5.00;;;25.10;31.90;;;;;;5018195;28;20030;-47
2021/12/26 10:57:35;;;;;;;7.45;5.10;;;25.10;31.90;;;;;;5023491;28;20112;-48
2021/12/26 11:00:39;;;;;;;6.68;4.22;;;25.00;32.00;;;;;;5024022;28;20120;-45
2021/12/26 11:03:27;;;;;;;6.30;4.55;;;25.00;32.00;;;;;;5018689;28;20049;-44
2021/12/26 11:05:59;;;;;;;6.70;4.32;;;25.10;31.90;;;;;;5023882;28;20424;-44
2021/12/26 11:08:30;;;;;;;7.03;5.05;;;25.10;31.90;;;;;;5023039;28;20997;-45
2021/12/26 11:10:58;;;;;;;9.30;5.38;;;25.00;31.90;;;;;;5024406;28;20026;-45
2021/12/26 11:13:28;;;;;;;8.38;4.85;;;25.10;31.90;;;;;;5026876;28;20021;-48
2021/12/26 11:15:57;;;;;;;7.53;4.93;;;25.00;31.80;;;;;;5025379;28;20024;-47
2021/12/26 11:18:23;;;;;;;7.43;4.85;;;25.10;31.50;;;;;;5027211;28;20050;-44
2021/12/26 11:20:55;;;;;;;8.48;5.15;;;25.10;31.70;;;;;;5027695;28;20025;-47
2021/12/26 11:23:30;;;;;;;8.80;5.57;;;25.00;31.90;;;;;;5019770;28;20530;-47
2021/12/26 11:26:00;;;;;;;7.90;5.65;;;25.10;31.80;;;;;;5024930;28;20496;-46
2021/12/26 11:28:30;;;;;;;9.63;6.03;;;25.10;31.30;;;;;;5025684;28;20386;-48
2021/12/26 11:31:28;;;;;;;8.27;5.57;;;25.10;31.30;;;;;;5027214;28;20061;-48
2021/12/26 11:33:59;;;;;;;7.38;5.50;;;25.00;31.30;;;;;;5026503;28;20029;-47
2021/12/26 11:36:27;;;;;;;8.63;5.88;;;25.00;31.30;;;;;;5012564;28;20041;-49
2021/12/26 11:38:55;;;;;;;9.30;6.07;;;25.00;31.20;;;;;;5006210;28;20051;-45
2021/12/26 11:41:36;;;;;;;9.57;6.25;;;25.00;31.40;;;;;;5019095;28;20037;-49
2021/12/26 11:44:02;;;;;;;8.40;6.10;;;25.00;31.50;;;;;;5022317;28;20033;-47
2021/12/26 11:47:05;;;;;;;8.43;5.90;;;25.00;31.50;;;;;;5023617;28;20030;-46
2021/12/26 11:50:01;;;;;;;9.98;5.47;;;25.00;31.60;;;;;;5022304;28;20028;-46
2021/12/26 11:52:46;;;;;;;14.98;6.97;;;25.00;31.70;;;;;;5023913;28;20057;-51
2021/12/26 11:55:49;;;;;;;22.98;9.73;;;25.00;31.70;;;;;;5024421;28;20030;-47
2021/12/26 11:58:31;;;;;;;20.23;10.63;;;25.00;31.60;;;;;;5025912;28;20082;-46
2021/12/26 12:00:59;;;;;;;26.25;11.52;;;24.90;32.30;;;;;;5025046;28;20107;-46
2021/12/26 12:03:31;;;;;;;20.80;10.60;;;24.90;31.90;;;;;;5025422;28;20025;-47
2021/12/26 12:05:58;;;;;;;16.67;9.88;;;24.90;31.50;;;;;;5015168;28;20355;-47
2021/12/26 12:08:23;;;;;;;20.30;10.30;;;24.90;31.60;;;;;;5006351;28;20414;-46
2021/12/26 12:10:55;;;;;;;19.60;10.20;;;24.90;31.50;;;;;;5006224;28;20026;-47
2021/12/26 12:13:26;;;;;;;20.92;10.90;;;24.90;31.50;;;;;;5005978;28;20041;-48
2021/12/26 12:15:56;;;;;;;15.20;8.93;;;24.90;31.50;;;;;;5006535;28;20034;-47
2021/12/26 12:18:33;;;;;;;16.83;9.75;;;25.00;31.50;;;;;;5006622;28;20057;-47
2021/12/26 12:21:10;;;;;;;12.68;7.50;;;25.00;31.60;;;;;;5006535;28;20033;-46
2021/12/26 12:23:40;;;;;;;14.77;9.10;;;25.00;31.60;;;;;;5007411;28;20020;-48
2021/12/26 12:26:06;;;;;;;15.55;8.95;;;25.00;31.40;;;;;;5006120;28;20069;-47
2021/12/26 12:28:40;;;;;;;13.13;8.82;;;25.00;31.40;;;;;;5005977;28;20457;-47
2021/12/26 12:31:09;;;;;;;14.15;8.48;;;25.00;31.40;;;;;;5006319;28;20080;-47
2021/12/26 12:33:37;;;;;;;11.57;7.63;;;25.00;31.50;;;;;;5005549;28;20030;-47
2021/12/26 12:36:12;;;;;;;15.48;8.90;;;25.00;31.40;;;;;;5005238;28;20014;-47
2021/12/26 12:38:45;;;;;;;12.55;7.93;;;25.00;31.40;;;;;;5005738;28;20037;-48
2021/12/26 12:41:29;;;;;;;14.57;7.55;;;25.00;31.40;;;;;;5005882;28;20145;-47
2021/12/26 12:43:58;;;;;;;11.65;7.60;;;25.00;31.40;;;;;;5004286;28;20018;-47
2021/12/26 12:46:24;;;;;;;13.15;8.20;;;25.00;31.30;;;;;;5006111;28;20029;-47
2021/12/26 12:48:59;;;;;;;11.48;8.30;;;25.00;31.30;;;;;;5005346;28;20071;-48
2021/12/26 12:51:27;;;;;;;10.88;7.38;;;25.00;31.20;;;;;;5038317;28;20036;-47
2021/12/26 12:54:18;;;;;;;11.60;7.82;;;25.10;31.30;;;;;;5033478;28;20053;-47
2021/12/26 12:56:46;;;;;;;12.25;8.20;;;25.10;31.20;;;;;;5005306;28;20030;-48
2021/12/26 12:59:19;;;;;;;9.70;7.22;;;25.10;31.20;;;;;;5005586;28;20045;-47